Time;durP1;ratioP1;P1;durP2;ratioP2;P2;SDS_P1;SDS_P2;PMS_P1;PMS_P2;Temp;Humidity;BMP_temperature;BMP_pressure;BME280_temperature;BME280_humidity;BME280_pressure;Samples;Min_cycle;Max_cycle;Signal;HPM_P1;HPM_P2
2023/02/02 01:54:41;;;;;;;32.60;20.80;;;;;;;0.05;99.77;100186.35;106611;1281;612071;-93
2023/02/02 01:57:45;;;;;;;33.10;19.60;;;;;;;0.24;99.35;100186.23;108593;1257;111315;-93
2023/02/02 02:00:15;;;;;;;33.70;20.40;;;;;;;0.31;99.02;100186.42;109103;1257;60007;-94
2023/02/02 02:02:45;;;;;;;30.40;19.50;;;;;;;0.37;98.86;100187.46;109122;1257;72012;-92
2023/02/02 02:05:15;;;;;;;36.30;19.80;;;;;;;0.43;98.58;100187.85;108515;1257;63963;-93
2023/02/02 02:07:49;;;;;;;34.00;20.70;;;;;;;0.47;98.24;100186.02;107963;1263;72698;-95
2023/02/02 02:10:20;;;;;;;33.50;19.20;;;;;;;0.51;98.07;100189.00;106648;1262;61168;-93
2023/02/02 02:12:53;;;;;;;31.90;20.10;;;;;;;0.55;97.66;100190.80;108038;1257;59656;-91
2023/02/02 02:18:49;;;;;;;31.30;19.80;;;;;;;0.64;97.26;100187.83;106240;1257;64323;-92
2023/02/02 02:27:58;;;;;;;30.30;18.30;;;;;;;0.74;96.37;100198.90;106555;1257;60008;-91
2023/02/02 02:30:50;;;;;;;32.70;19.60;;;;;;;0.78;96.22;100204.33;108041;1259;71777;-92
2023/02/02 02:33:41;;;;;;;34.50;20.40;;;;;;;0.79;95.86;100208.92;107172;1260;65425;-92
2023/02/02 02:36:16;;;;;;;34.40;20.00;;;;;;;0.80;95.75;100205.10;106259;1259;72706;-94
2023/02/02 02:38:52;;;;;;;43.20;22.20;;;;;;;0.81;95.51;100210.42;106413;1265;61922;-93
2023/02/02 02:41:22;;;;;;;33.80;19.70;;;;;;;0.83;95.58;100207.45;105999;1260;60284;-94
2023/02/02 02:43:59;;;;;;;31.80;19.90;;;;;;;0.84;95.45;100213.42;106474;1260;74020;-92
2023/02/02 02:46:50;;;;;;;38.60;21.70;;;;;;;0.89;95.37;100210.04;104973;1292;599720;-94
2023/02/02 02:49:19;;;;;;;37.50;22.60;;;;;;;0.86;95.23;100211.48;108020;1266;60533;-93
2023/02/02 02:51:50;;;;;;;31.90;20.00;;;;;;;0.86;95.25;100213.20;108671;1266;60279;-92
2023/02/02 02:54:38;;;;;;;40.20;21.80;;;;;;;0.88;95.21;100209.38;107471;1266;72698;-94
2023/02/02 02:57:32;;;;;;;38.70;21.40;;;;;;;0.86;95.07;100210.97;105949;1272;63831;-93
2023/02/02 03:00:27;;;;;;;35.20;19.80;;;;;;;0.81;95.07;100208.69;105098;1267;758373;-93
2023/02/02 03:03:05;;;;;;;35.30;20.60;;;;;;;0.78;95.51;100208.09;105661;1269;62112;-94
2023/02/02 03:05:48;;;;;;;32.50;18.60;;;;;;;0.78;95.69;100206.03;106711;1267;61230;-91
2023/02/02 03:08:32;;;;;;;36.20;20.40;;;;;;;0.77;95.77;100204.14;105603;1267;72256;-95
2023/02/02 03:11:02;;;;;;;36.60;20.80;;;;;;;0.78;95.87;100206.56;106461;1256;63753;-93
2023/02/02 03:13:30;;;;;;;36.50;21.80;;;;;;;0.78;95.95;100209.82;107140;1257;73629;-93
2023/02/02 03:15:59;;;;;;;35.60;19.20;;;;;;;0.81;96.20;100208.70;107166;1254;62021;-93
2023/02/02 03:18:29;;;;;;;36.30;20.30;;;;;;;0.85;96.18;100205.17;106576;1254;61095;-94
2023/02/02 03:20:58;;;;;;;32.80;17.80;;;;;;;0.87;96.08;100213.72;107895;1254;74058;-92
2023/02/02 03:23:27;;;;;;;38.30;20.70;;;;;;;0.86;95.97;100208.73;106656;1259;65444;-92
2023/02/02 03:25:56;;;;;;;32.60;18.80;;;;;;;0.87;96.01;100211.12;106495;1257;72781;-89
2023/02/02 03:28:25;;;;;;;29.90;18.20;;;;;;;0.89;95.96;100217.27;106304;1257;61444;-93
2023/02/02 03:30:53;;;;;;;31.90;17.60;;;;;;;0.91;96.04;100226.51;106322;1257;60264;-94
2023/02/02 03:33:22;;;;;;;29.70;17.60;;;;;;;0.93;95.96;100223.15;106456;1252;74500;-93
2023/02/02 03:35:50;;;;;;;33.80;20.20;;;;;;;0.97;96.16;100227.89;107550;1256;65408;-94
2023/02/02 03:38:19;;;;;;;30.10;19.30;;;;;;;1.01;95.96;100231.58;106721;1256;72310;-93
2023/02/02 03:40:50;;;;;;;32.50;19.90;;;;;;;1.05;95.96;100235.09;107031;1259;62958;-95
2023/02/02 03:43:20;;;;;;;28.70;17.60;;;;;;;1.11;95.91;100235.11;106730;1257;60321;-95
2023/02/02 03:45:59;;;;;;;30.90;19.10;;;;;;;1.16;95.81;100232.88;107746;1253;72894;-93
2023/02/02 03:48:42;;;;;;;30.40;16.90;;;;;;;1.20;95.71;100235.52;107893;1248;63910;-92
2023/02/02 03:51:18;;;;;;;27.30;16.90;;;;;;;1.23;95.47;100239.59;106964;1256;72726;-96
2023/02/02 03:53:49;;;;;;;31.70;18.30;;;;;;;1.23;95.28;100240.80;107687;1257;61414;-95
2023/02/02 03:56:18;;;;;;;25.00;16.60;;;;;;;1.23;95.08;100244.73;107801;1254;60019;-94
2023/02/02 03:58:51;;;;;;;25.70;16.30;;;;;;;1.23;95.10;100247.99;107517;1256;74065;-93
2023/02/02 04:01:25;;;;;;;21.40;14.90;;;;;;;1.23;95.18;100246.80;109288;1254;63597;-94
2023/02/02 04:03:58;;;;;;;24.70;15.30;;;;;;;1.23;95.19;100247.14;109514;1254;72548;-93
2023/02/02 04:06:28;;;;;;;29.90;17.50;;;;;;;1.25;95.22;100252.45;109455;1254;61148;-93
2023/02/02 04:08:59;;;;;;;23.20;14.40;;;;;;;1.26;95.35;100254.30;108601;1255;60002;-92
2023/02/02 04:11:29;;;;;;;22.20;15.00;;;;;;;1.28;95.46;100255.64;109688;1254;72993;-94
2023/02/02 04:14:01;;;;;;;25.40;16.30;;;;;;;1.29;95.33;100255.27;109618;1254;63481;-93
2023/02/02 04:16:37;;;;;;;22.00;14.60;;;;;;;1.29;95.23;100255.42;109492;1256;72930;-93
2023/02/02 04:19:14;;;;;;;24.30;14.70;;;;;;;1.28;95.28;100258.55;109537;1256;62609;-94
2023/02/02 04:21:42;;;;;;;25.30;17.40;;;;;;;1.32;95.28;100262.41;108416;1256;60314;-93
2023/02/02 04:24:13;;;;;;;31.80;18.30;;;;;;;1.35;95.47;100266.95;107368;1256;72356;-94
2023/02/02 04:26:43;;;;;;;28.00;19.90;;;;;;;1.38;95.28;100270.48;108026;1256;63183;-92
2023/02/02 04:29:14;;;;;;;30.30;17.90;;;;;;;1.41;95.17;100270.26;106823;1256;72311;-93
2023/02/02 04:31:42;;;;;;;49.40;30.90;;;;;;;1.42;95.29;100272.98;106553;1256;61050;-95
2023/02/02 04:34:11;;;;;;;29.00;17.10;;;;;;;1.43;95.14;100272.27;106307;1262;60031;-94
2023/02/02 04:36:40;;;;;;;26.20;16.40;;;;;;;1.46;95.14;100271.49;106115;1265;74008;-95
2023/02/02 04:39:10;;;;;;;28.10;16.70;;;;;;;1.46;94.94;100267.86;108080;1257;64865;-89
2023/02/02 04:41:39;;;;;;;29.30;19.80;;;;;;;1.48;94.99;100270.92;108714;1256;73957;-91
2023/02/02 04:44:17;;;;;;;26.00;15.90;;;;;;;1.49;94.84;100269.34;109347;1256;61260;-92
2023/02/02 04:46:48;;;;;;;32.60;18.20;;;;;;;1.50;94.72;100267.61;106878;1257;60259;-92
2023/02/02 04:49:17;;;;;;;33.60;19.70;;;;;;;1.50;94.83;100268.48;107959;1256;73068;-92
2023/02/02 04:51:49;;;;;;;31.80;17.80;;;;;;;1.49;94.80;100270.73;109152;1256;63801;-94
2023/02/02 04:54:17;;;;;;;31.10;17.70;;;;;;;1.48;94.70;100270.73;109151;1256;72287;-93
2023/02/02 04:56:46;;;;;;;31.20;17.40;;;;;;;1.48;94.64;100281.08;109153;1256;61155;-92
2023/02/02 04:59:15;;;;;;;31.40;17.40;;;;;;;1.47;94.60;100281.81;109160;1256;60282;-92
2023/02/02 05:01:43;;;;;;;30.20;17.30;;;;;;;1.48;94.74;100284.02;108500;1262;73039;-93
2023/02/02 05:04:11;;;;;;;32.80;18.20;;;;;;;1.52;94.87;100290.45;106471;1256;63529;-93
2023/02/02 05:06:40;;;;;;;31.40;17.80;;;;;;;1.56;94.89;100286.55;106361;1261;71732;-93
2023/02/02 05:09:09;;;;;;;39.60;23.00;;;;;;;1.60;95.01;100292.79;106337;1256;59778;-93
2023/02/02 05:11:50;;;;;;;47.90;24.50;;;;;;;1.63;94.85;100292.38;107861;1256;60137;-94
2023/02/02 05:14:23;;;;;;;64.40;35.20;;;;;;;1.66;94.87;100299.86;107138;1258;73900;-95
2023/02/02 05:16:55;;;;;;;35.20;22.10;;;;;;;1.69;94.69;100301.86;107079;1259;63590;-93
2023/02/02 05:19:23;;;;;;;32.60;19.10;;;;;;;1.70;94.49;100299.42;106780;1256;72379;-91
2023/02/02 05:22:12;;;;;;;35.30;21.30;;;;;;;1.70;94.27;100299.27;108305;1256;61115;-92
2023/02/02 05:24:51;;;;;;;32.00;19.40;;;;;;;1.68;94.20;100299.12;107254;1261;60085;-93
2023/02/02 05:27:20;;;;;;;33.10;19.60;;;;;;;1.70;94.25;100300.13;107049;1260;74006;-95
2023/02/02 05:29:50;;;;;;;33.40;18.70;;;;;;;1.71;94.29;100300.61;107282;1256;65901;-94
2023/02/02 05:32:19;;;;;;;31.10;18.10;;;;;;;1.73;94.37;100306.41;106820;1257;74458;-94
2023/02/02 05:34:48;;;;;;;32.00;18.10;;;;;;;1.73;94.18;100307.06;106620;1256;62257;-92
2023/02/02 05:37:37;;;;;;;30.80;18.40;;;;;;;1.73;94.06;100312.08;106921;1260;59732;-93
2023/02/02 05:40:08;;;;;;;30.10;16.90;;;;;;;1.74;94.16;100315.50;107158;1256;74297;-92
2023/02/02 05:42:37;;;;;;;29.20;18.10;;;;;;;1.78;94.16;100317.11;108698;1256;63682;-92
2023/02/02 05:45:10;;;;;;;33.20;18.70;;;;;;;1.82;94.20;100319.75;109204;1256;73335;-91
2023/02/02 05:47:41;;;;;;;32.70;18.40;;;;;;;1.88;94.05;100321.48;107678;1256;59933;-95
2023/02/02 05:50:10;;;;;;;31.60;19.30;;;;;;;1.93;94.09;100322.37;106839;1256;61361;-92
2023/02/02 05:52:40;;;;;;;34.60;20.20;;;;;;;2.02;93.98;100325.04;107036;1256;72034;-93
2023/02/02 05:55:09;;;;;;;34.30;19.80;;;;;;;2.10;93.99;100322.03;106915;1256;63817;-93
2023/02/02 05:57:37;;;;;;;32.80;20.40;;;;;;;2.15;93.54;100327.73;107403;1260;71638;-95
2023/02/02 06:00:20;;;;;;;40.90;20.70;;;;;;;2.16;93.07;100332.90;107317;1261;59613;-95
2023/02/02 06:02:49;;;;;;;37.90;19.20;;;;;;;2.14;92.80;100332.44;107878;1260;60289;-92
2023/02/02 06:05:28;;;;;;;36.60;20.00;;;;;;;2.13;92.61;100333.85;108845;1256;73865;-93
2023/02/02 06:08:01;;;;;;;30.20;17.60;;;;;;;2.08;92.30;100337.60;109275;1256;64670;-95
2023/02/02 06:10:55;;;;;;;33.50;17.00;;;;;;;2.04;92.31;100340.15;108120;1260;74510;-95
2023/02/02 06:13:34;;;;;;;31.40;18.30;;;;;;;1.99;92.47;100345.29;107315;1257;61078;-94
2023/02/02 06:16:07;;;;;;;37.10;21.30;;;;;;;1.96;92.82;100347.95;107616;1255;60187;-93
2023/02/02 06:18:39;;;;;;;35.80;21.50;;;;;;;1.98;93.00;100350.16;108842;1254;74487;-93
2023/02/02 06:21:10;;;;;;;38.80;20.80;;;;;;;2.01;93.04;100356.43;107353;1256;64642;-94
2023/02/02 06:23:44;;;;;;;33.30;17.70;;;;;;;2.04;92.81;100351.52;108602;1255;72459;-93
2023/02/02 06:26:36;;;;;;;33.10;18.30;;;;;;;2.05;92.62;100357.34;108710;1255;61159;-93
2023/02/02 06:29:05;;;;;;;34.10;19.90;;;;;;;2.07;92.62;100352.14;108717;1255;60337;-92
2023/02/02 06:31:38;;;;;;;36.60;18.90;;;;;;;2.10;92.74;100355.32;109170;1255;73380;-93
2023/02/02 06:34:33;;;;;;;34.10;19.50;;;;;;;2.20;92.92;100360.55;109560;1255;64438;-94
2023/02/02 06:37:22;;;;;;;41.30;22.90;;;;;;;2.31;92.93;100366.40;109369;1255;72305;-92
2023/02/02 06:40:12;;;;;;;33.30;19.70;;;;;;;2.40;92.68;100365.29;108866;1255;59366;-93
2023/02/02 06:43:19;;;;;;;37.00;20.10;;;;;;;2.40;91.92;100370.97;108949;1255;60814;-94
2023/02/02 06:46:09;;;;;;;34.00;17.80;;;;;;;2.37;91.75;100372.61;109218;1256;73415;-96
2023/02/02 06:48:55;;;;;;;31.90;18.30;;;;;;;2.38;91.47;100376.91;109359;1256;64321;-94
2023/02/02 06:54:52;;;;;;;30.20;19.50;;;;;;;2.44;91.34;100372.23;108763;1259;59945;-96
2023/02/02 06:58:16;;;;;;;29.50;17.90;;;;;;;2.45;91.29;100369.24;108869;1259;61352;-95
2023/02/02 07:01:38;;;;;;;36.80;20.30;;;;;;;2.55;91.17;100381.06;109044;1259;73321;-96
2023/02/02 07:07:33;;;;;;;35.10;18.00;;;;;;;2.71;90.67;100377.80;108012;1264;73021;-94
2023/02/02 07:10:13;;;;;;;30.20;18.60;;;;;;;2.73;90.21;100383.60;108206;1260;59242;-95
2023/02/02 07:13:20;;;;;;;71.90;42.40;;;;;;;2.69;89.74;100376.14;108662;1260;60917;-94
2023/02/02 07:16:19;;;;;;;45.00;26.00;;;;;;;2.61;89.28;100389.30;107946;1260;76521;-95
2023/02/02 10:39:21;;;;;;;21.00;15.20;;;;;;;6.71;70.07;100371.66;106536;1282;71933;-88
2023/02/02 10:42:10;;;;;;;21.70;13.60;;;;;;;6.44;70.52;100368.79;107078;1269;61017;-90
2023/02/02 10:45:07;;;;;;;19.70;14.80;;;;;;;6.27;71.26;100377.59;106436;1272;60363;-92
2023/02/02 10:47:43;;;;;;;21.10;15.40;;;;;;;6.11;71.87;100373.45;107616;1273;72128;-87
2023/02/02 10:50:20;;;;;;;19.40;13.60;;;;;;;6.03;72.37;100374.84;106929;1269;63670;-88
2023/02/02 10:52:55;;;;;;;18.50;11.50;;;;;;;5.93;72.88;100374.94;106919;1272;72412;-91
2023/02/02 10:55:37;;;;;;;22.70;13.30;;;;;;;5.85;72.91;100377.53;107257;1270;60477;-90
2023/02/02 10:58:32;;;;;;;14.60;11.30;;;;;;;5.78;73.31;100372.08;107579;1265;59524;-90
2023/02/02 11:01:16;;;;;;;18.90;12.10;;;;;;;5.71;73.84;100371.17;107948;1265;74383;-91
2023/02/02 11:03:46;;;;;;;14.70;11.20;;;;;;;5.73;74.02;100371.99;108359;1265;64199;-90
2023/02/02 11:09:03;;;;;;;15.10;10.00;;;;;;;5.80;73.93;100371.65;108893;1265;59343;-89
2023/02/02 11:11:44;;;;;;;14.20;10.10;;;;;;;5.83;73.64;100369.66;108651;1265;60161;-88
2023/02/02 11:14:38;;;;;;;17.50;10.00;;;;;;;5.84;73.42;100374.10;108359;1265;72956;-89
2023/02/02 11:17:34;;;;;;;16.80;9.90;;;;;;;5.80;73.27;100378.23;108161;1265;62411;-89
2023/02/02 11:20:24;;;;;;;18.30;11.90;;;;;;;5.76;73.46;100374.79;107914;1259;72703;-88
2023/02/02 11:23:00;;;;;;;14.60;10.80;;;;;;;5.71;73.39;100379.02;107818;1259;60413;-90
2023/02/02 11:25:53;;;;;;;14.50;10.00;;;;;;;5.70;73.50;100376.45;108232;1260;60204;-90
2023/02/02 11:28:45;;;;;;;18.10;10.20;;;;;;;5.72;73.83;100377.73;108235;1259;71958;-91
2023/02/02 11:31:41;;;;;;;19.10;11.00;;;;;;;5.79;74.05;100377.27;107758;1259;64574;-89
2023/02/02 11:39:13;;;;;;;16.30;10.40;;;;;;;5.78;73.77;100388.59;107164;1259;60650;-90
2023/02/02 11:42:49;;;;;;;19.30;10.70;;;;;;;5.70;73.58;100381.65;108101;1261;60803;-89
2023/02/02 11:45:38;;;;;;;17.40;11.80;;;;;;;5.62;73.82;100380.60;108309;1260;72994;-88
2023/02/02 11:48:24;;;;;;;16.90;11.10;;;;;;;5.49;73.76;100384.79;108447;1259;63773;-89
2023/02/02 11:51:24;;;;;;;19.80;12.30;;;;;;;5.40;74.31;100382.77;108849;1262;71833;-88
2023/02/02 11:54:07;;;;;;;19.90;12.90;;;;;;;5.31;74.53;100382.25;107794;1262;61462;-88
2023/02/02 11:56:36;;;;;;;18.50;11.30;;;;;;;5.25;74.95;100380.26;108146;1262;60313;-89
2023/02/02 11:59:32;;;;;;;12.90;9.40;;;;;;;5.21;75.21;100382.70;108525;1262;73920;-89
2023/02/02 12:02:24;;;;;;;12.70;9.00;;;;;;;5.08;75.78;100389.12;107838;1262;63678;-89
2023/02/02 12:05:19;;;;;;;13.90;8.70;;;;;;;4.98;76.33;100390.18;107997;1262;74225;-90
2023/02/02 12:07:49;;;;;;;17.70;8.10;;;;;;;4.90;76.83;100387.59;107961;1262;60522;-89
2023/02/02 12:10:30;;;;;;;14.10;8.10;;;;;;;4.86;77.40;100392.08;107958;1262;60089;-89
2023/02/02 12:13:34;;;;;;;15.70;8.20;;;;;;;4.83;77.52;100395.16;108114;1262;72982;-88
2023/02/02 12:16:34;;;;;;;12.30;7.90;;;;;;;4.74;77.75;100395.83;108413;1262;64160;-89
2023/02/02 12:19:43;;;;;;;14.70;10.50;;;;;;;4.67;78.46;100403.58;107909;1262;72927;-91
2023/02/02 12:23:18;;;;;;;13.70;9.50;;;;;;;4.62;78.62;100397.21;108354;1259;61569;-90
2023/02/02 12:25:54;;;;;;;16.60;10.00;;;;;;;4.60;79.03;100405.23;106427;1265;61953;-89
2023/02/02 12:28:59;;;;;;;14.10;9.00;;;;;;;4.64;79.36;100405.44;105671;1265;74045;-90
2023/02/02 12:31:45;;;;;;;11.00;6.70;;;;;;;4.59;79.14;100402.69;106358;1265;65266;-91
2023/02/02 12:34:31;;;;;;;14.10;7.90;;;;;;;4.55;79.35;100406.11;107500;1265;72694;-89
2023/02/02 12:37:18;;;;;;;9.20;6.40;;;;;;;4.51;79.75;100406.11;106870;1267;59945;-90
2023/02/02 12:40:01;;;;;;;9.70;5.50;;;;;;;4.50;79.64;100410.27;106928;1266;60370;-88
2023/02/02 12:42:51;;;;;;;10.20;5.40;;;;;;;4.47;79.86;100408.86;106755;1265;72886;-91
2023/02/02 12:45:56;;;;;;;6.20;4.90;;;;;;;4.38;79.89;100409.37;106301;1265;64705;-90
2023/02/02 12:48:41;;;;;;;11.40;5.60;;;;;;;4.28;80.03;100413.38;107025;1265;73688;-89
2023/02/02 12:51:39;;;;;;;10.10;6.00;;;;;;;4.23;80.60;100415.98;107451;1265;60949;-91
2023/02/02 12:54:14;;;;;;;5.10;4.30;;;;;;;4.20;80.82;100419.55;108500;1265;60215;-87
2023/02/02 12:57:22;;;;;;;10.30;7.20;;;;;;;4.20;81.42;100417.64;108130;1265;73042;-88
2023/02/02 13:00:44;;;;;;;11.60;6.50;;;;;;;4.21;81.21;100423.14;108267;1268;62410;-90
2023/02/02 13:03:44;;;;;;;11.20;7.50;;;;;;;4.21;81.75;100427.10;108012;1263;71517;-90
2023/02/02 13:07:32;;;;;;;11.50;8.00;;;;;;;4.25;81.70;100428.88;108629;1263;57814;-89
2023/02/02 13:27:49;;;;;;;12.80;6.90;;;;;;;4.03;82.34;100434.33;105190;1282;59879;-91
2023/02/02 13:30:27;;;;;;;19.90;9.50;;;;;;;3.99;82.43;100431.03;104476;1277;60704;-88
2023/02/02 13:33:00;;;;;;;18.60;9.50;;;;;;;3.98;82.53;100430.55;104758;1279;73014;-90
2023/02/02 13:35:33;;;;;;;13.50;8.80;;;;;;;3.94;82.46;100428.77;104598;1284;64744;-89
2023/02/02 13:38:14;;;;;;;18.60;9.70;;;;;;;3.90;82.71;100431.86;105383;1277;72515;-89
2023/02/02 13:40:42;;;;;;;21.50;10.90;;;;;;;3.88;82.91;100435.73;105858;1277;61011;-88
2023/02/02 13:43:34;;;;;;;17.40;10.40;;;;;;;3.90;82.93;100432.37;104661;1283;59670;-89
2023/02/02 13:46:06;;;;;;;19.90;10.60;;;;;;;3.95;83.13;100433.42;104809;1277;74236;-91
2023/02/02 13:48:46;;;;;;;26.40;12.00;;;;;;;4.01;83.14;100434.09;105191;1279;64742;-86
2023/02/02 13:51:44;;;;;;;29.40;14.20;;;;;;;4.00;83.06;100431.85;106197;1277;73794;-89
2023/02/02 13:54:27;;;;;;;38.90;18.40;;;;;;;3.97;83.09;100434.91;107705;1276;60379;-86
2023/02/02 14:28:41;;;;;;;22.60;14.50;;;;;;;3.42;85.88;100441.11;106701;1289;63938;-89
2023/02/02 14:31:42;;;;;;;21.30;11.80;;;;;;;3.43;85.99;100437.98;106534;1290;71191;-88
2023/02/02 14:34:48;;;;;;;22.70;12.30;;;;;;;3.44;86.12;100437.77;106450;1291;58378;-90
2023/02/02 14:38:36;;;;;;;25.20;12.30;;;;;;;3.42;86.24;100438.34;105914;1300;58122;-90
2023/02/02 14:47:22;;;;;;;24.70;14.50;;;;;;;3.30;86.03;100446.67;108081;1270;62682;-89
2023/02/02 14:49:54;;;;;;;25.10;13.40;;;;;;;3.24;86.26;100454.33;107839;1277;72831;-89
2023/02/02 14:52:24;;;;;;;25.60;15.60;;;;;;;3.20;86.74;100457.05;107558;1280;62695;-88
2023/02/02 14:54:52;;;;;;;23.50;14.80;;;;;;;3.15;87.16;100459.98;107501;1280;61473;-88
2023/02/02 14:57:25;;;;;;;26.00;14.90;;;;;;;3.09;87.50;100462.73;107559;1279;74379;-91
2023/02/02 14:59:54;;;;;;;29.40;19.00;;;;;;;3.07;87.73;100466.97;107548;1280;64961;-89
2023/02/02 15:02:27;;;;;;;29.00;18.70;;;;;;;3.07;87.92;100471.63;107526;1280;71714;-91
2023/02/02 15:05:28;;;;;;;31.40;19.00;;;;;;;3.07;88.12;100471.79;107715;1279;60267;-91
2023/02/02 15:08:07;;;;;;;28.50;15.40;;;;;;;3.08;88.28;100478.33;107711;1278;60397;-88
2023/02/02 15:10:46;;;;;;;23.60;16.00;;;;;;;3.08;88.37;100482.10;107638;1280;74731;-90
2023/02/02 15:13:14;;;;;;;32.90;17.80;;;;;;;3.11;88.67;100489.28;107624;1279;65431;-89
2023/02/02 15:15:42;;;;;;;26.50;16.40;;;;;;;3.14;88.66;100493.52;107477;1280;72769;-88
2023/02/02 15:18:16;;;;;;;28.90;17.50;;;;;;;3.14;88.78;100493.16;107640;1280;59594;-89
2023/02/02 15:20:49;;;;;;;24.70;13.80;;;;;;;3.13;88.80;100491.27;107734;1279;59498;-89
2023/02/02 15:23:30;;;;;;;25.50;14.60;;;;;;;3.09;88.60;100487.94;107501;1279;72864;-89
2023/02/02 15:26:04;;;;;;;23.90;14.00;;;;;;;3.02;88.58;100489.37;107552;1280;63946;-90
2023/02/02 15:28:52;;;;;;;20.00;13.50;;;;;;;2.96;88.59;100490.42;107766;1280;72760;-89
2023/02/02 15:31:40;;;;;;;24.20;14.50;;;;;;;2.91;88.85;100490.59;107494;1279;61137;-91
2023/02/02 15:34:37;;;;;;;27.90;15.90;;;;;;;2.85;88.74;100493.69;107547;1279;61387;-91
2023/02/02 15:37:06;;;;;;;30.10;16.90;;;;;;;2.78;88.72;100492.37;107561;1279;74221;-90
2023/02/02 15:39:55;;;;;;;31.90;19.10;;;;;;;2.75;88.67;100496.77;107415;1279;63760;-89
2023/02/02 15:42:52;;;;;;;31.10;17.70;;;;;;;2.72;88.49;100502.03;107385;1276;73510;-91
2023/02/02 15:45:43;;;;;;;30.50;18.00;;;;;;;2.67;88.46;100506.65;107630;1276;60064;-89
2023/02/02 15:48:45;;;;;;;31.10;16.90;;;;;;;2.62;88.31;100509.56;107903;1277;61081;-89
2023/02/02 15:51:29;;;;;;;23.10;16.10;;;;;;;2.57;88.41;100511.27;107861;1276;72629;-89
2023/02/02 15:54:00;;;;;;;27.20;17.20;;;;;;;2.53;88.39;100507.07;107800;1276;63933;-89
2023/02/02 15:56:29;;;;;;;31.40;16.80;;;;;;;2.48;88.39;100510.64;107849;1276;72677;-89
2023/02/02 15:58:58;;;;;;;23.80;16.30;;;;;;;2.44;88.63;100513.20;107723;1276;61222;-89
2023/02/02 16:01:25;;;;;;;36.60;18.70;;;;;;;2.42;88.68;100514.12;107668;1279;60182;-88
2023/02/02 16:04:09;;;;;;;25.40;17.00;;;;;;;2.40;88.78;100513.31;107902;1278;73989;-86
2023/02/02 16:06:39;;;;;;;22.30;14.80;;;;;;;2.37;88.82;100512.88;107840;1278;63796;-88
2023/02/02 16:09:06;;;;;;;28.50;18.40;;;;;;;2.35;88.90;100516.89;107929;1277;72657;-88
2023/02/02 16:11:33;;;;;;;26.40;16.20;;;;;;;2.34;88.83;100520.89;107942;1278;61177;-89
2023/02/02 16:14:05;;;;;;;23.70;13.80;;;;;;;2.35;88.84;100523.78;107468;1281;60144;-87
2023/02/02 16:16:34;;;;;;;24.60;13.70;;;;;;;2.37;88.67;100530.81;107734;1278;74942;-88
2023/02/02 16:19:03;;;;;;;21.40;13.70;;;;;;;2.36;88.70;100530.48;107813;1277;63556;-88
2023/02/02 16:21:31;;;;;;;22.70;16.00;;;;;;;2.35;88.90;100533.45;107708;1279;73553;-89
2023/02/02 16:23:58;;;;;;;29.40;16.30;;;;;;;2.34;88.89;100539.17;107506;1277;61453;-88
2023/02/02 16:27:17;;;;;;;;;;;;;;;;;;;;;
2023/02/02 16:30:29;;;;;;;25.10;16.20;;;;;;;2.31;88.99;100548.92;107409;1277;75106;-90
2023/02/02 16:32:57;;;;;;;21.80;14.90;;;;;;;2.27;89.27;100550.39;107703;1276;64812;-89
2023/02/02 16:35:37;;;;;;;26.30;14.60;;;;;;;2.24;89.32;100552.55;107716;1276;73723;-89
2023/02/02 16:38:32;;;;;;;33.20;17.70;;;;;;;2.21;89.38;100554.02;107682;1276;61143;-88
2023/02/02 16:41:10;;;;;;;26.80;16.10;;;;;;;2.18;89.40;100553.59;107698;1276;60141;-90
2023/02/02 16:43:39;;;;;;;26.20;15.10;;;;;;;2.14;89.78;100556.10;107714;1276;75103;-88
2023/02/02 16:46:17;;;;;;;28.00;15.80;;;;;;;2.12;89.89;100562.20;107719;1276;63760;-90
2023/02/02 16:48:54;;;;;;;25.20;15.90;;;;;;;2.08;89.93;100561.59;107982;1276;72534;-88
2023/02/02 16:51:28;;;;;;;23.80;13.40;;;;;;;2.07;90.02;100563.50;107746;1276;61222;-90
2023/02/02 16:53:58;;;;;;;18.70;13.80;;;;;;;2.06;90.18;100563.02;107986;1276;60068;-91
2023/02/02 16:56:29;;;;;;;23.20;14.10;;;;;;;2.04;90.24;100564.79;107791;1276;74751;-91
2023/02/02 16:58:58;;;;;;;26.00;16.10;;;;;;;2.02;90.26;100572.44;107835;1276;65002;-91
2023/02/02 17:01:41;;;;;;;28.30;14.80;;;;;;;1.99;90.17;100566.13;107888;1276;71441;-91
2023/02/02 17:04:28;;;;;;;26.00;13.90;;;;;;;1.98;90.12;100570.29;107773;1276;61632;-90
2023/02/02 17:07:25;;;;;;;22.60;13.50;;;;;;;1.95;90.08;100571.56;107723;1276;61335;-88
2023/02/02 17:10:11;;;;;;;22.00;14.60;;;;;;;1.92;90.25;100572.88;107438;1282;74979;-88
2023/02/02 17:12:38;;;;;;;22.20;13.70;;;;;;;1.92;90.42;100572.19;107370;1280;63762;-91
2023/02/02 17:15:17;;;;;;;25.40;13.40;;;;;;;1.93;90.48;100572.86;107368;1282;72710;-89
2023/02/02 17:17:48;;;;;;;24.10;14.80;;;;;;;1.96;90.48;100567.77;107394;1280;60206;-91
2023/02/02 17:20:15;;;;;;;28.40;16.00;;;;;;;1.97;90.50;100569.98;107378;1280;61192;-89
2023/02/02 17:22:48;;;;;;;29.50;17.50;;;;;;;1.99;90.26;100572.86;107300;1280;73941;-90
2023/02/02 17:25:39;;;;;;;26.80;16.60;;;;;;;2.02;90.20;100574.86;107432;1281;63785;-92
2023/02/02 17:28:10;;;;;;;29.20;16.90;;;;;;;2.01;89.85;100574.52;107568;1281;73681;-89
2023/02/02 17:30:41;;;;;;;23.40;14.50;;;;;;;2.01;89.95;100575.92;107523;1280;61261;-91
2023/02/02 17:33:13;;;;;;;22.30;16.10;;;;;;;1.99;89.77;100575.77;106908;1286;60378;-90
2023/02/02 17:35:45;;;;;;;21.40;15.50;;;;;;;1.98;89.80;100575.64;107015;1284;73631;-90
2023/02/02 17:38:23;;;;;;;36.30;17.50;;;;;;;2.00;89.84;100577.48;107019;1285;63740;-89
2023/02/02 17:40:52;;;;;;;30.70;17.90;;;;;;;2.02;89.68;100577.08;107048;1285;72890;-89
2023/02/02 17:43:25;;;;;;;34.50;18.80;;;;;;;2.05;89.60;100578.91;107034;1285;60193;-89
2023/02/02 17:45:52;;;;;;;33.90;18.30;;;;;;;2.08;89.64;100577.98;107050;1281;60452;-87
2023/02/02 17:48:20;;;;;;;32.50;18.00;;;;;;;2.09;89.40;100583.64;107380;1281;73924;-87
2023/02/02 17:50:47;;;;;;;29.70;17.30;;;;;;;2.11;89.41;100580.48;107425;1281;63790;-90
2023/02/02 17:53:18;;;;;;;26.30;17.10;;;;;;;2.12;89.22;100579.27;107334;1281;73316;-90
2023/02/02 17:55:46;;;;;;;26.10;14.70;;;;;;;2.12;89.02;100580.83;107224;1281;60166;-86
2023/02/02 17:58:16;;;;;;;25.70;15.50;;;;;;;2.10;88.78;100579.32;107203;1281;60431;-90
2023/02/02 18:00:45;;;;;;;24.90;13.70;;;;;;;2.13;88.65;100581.29;107356;1281;74219;-91
2023/02/02 18:03:16;;;;;;;21.20;14.70;;;;;;;2.13;88.57;100586.29;107582;1279;63946;-87
2023/02/02 18:08:26;;;;;;;22.60;13.90;;;;;;;2.14;88.57;100587.66;107795;1276;60864;-91
2023/02/02 18:10:54;;;;;;;29.30;17.20;;;;;;;2.18;88.73;100593.77;108147;1274;61570;-91
2023/02/02 18:13:22;;;;;;;28.20;16.80;;;;;;;2.22;88.57;100591.40;107950;1276;73702;-90
2023/02/02 18:15:50;;;;;;;31.30;19.10;;;;;;;2.25;88.45;100589.95;107862;1275;63605;-88
2023/02/02 18:18:17;;;;;;;37.10;22.30;;;;;;;2.27;88.34;100593.88;107959;1275;72502;-89
2023/02/02 18:20:47;;;;;;;28.80;16.30;;;;;;;2.27;88.20;100597.85;108053;1276;60402;-89
2023/02/02 18:23:15;;;;;;;26.00;17.50;;;;;;;2.26;88.08;100606.65;107751;1275;60895;-89
2023/02/02 18:25:42;;;;;;;24.40;16.50;;;;;;;2.24;87.99;100608.06;107856;1276;74036;-89
2023/02/02 18:28:14;;;;;;;21.50;13.40;;;;;;;2.23;88.12;100605.54;107874;1276;64283;-89
2023/02/02 18:30:45;;;;;;;25.80;14.50;;;;;;;2.22;88.26;100604.00;107860;1276;73562;-90
2023/02/02 18:33:18;;;;;;;;;;;;;;;2.24;88.49;100601.01;107911;1275;61255;-90
2023/02/02 18:35:46;;;;;;;26.00;13.30;;;;;;;2.29;88.44;100597.61;107965;1275;60169;-91
2023/02/02 18:38:13;;;;;;;31.60;16.70;;;;;;;2.33;88.47;100595.27;108036;1276;74721;-89
2023/02/02 18:40:41;;;;;;;31.00;18.20;;;;;;;2.38;88.47;100601.02;108141;1275;63799;-88
2023/02/02 18:43:08;;;;;;;38.20;17.90;;;;;;;2.42;88.41;100598.46;107918;1276;72824;-90